Decoded Metar for KAQW (NORTH ADAMS in MA, USA) (IATA:AQW) | Meteo·Mobile Aviation Weather
aviador You're here:

KAQW Decoded Metar

NORTH ADAMS in MA, USA
Report Time2019-05-19 17:52:00
UTC Time2019-05-19 18:19:20
Flight Rules vfr VFR
Wind080° at 05 kt
W.Decomp.*RWY 11: 4.8 kt HW 1.4 kt LCW
Visibility9999 m
Phenomena:N/A
Clouds:N/A
Expected CloudBase > 2,400 ft AGL from Temp-Dew spread
CeilingNone
Temp24°C (ISA +10)
Dew Point18°C (69% RH)
QNH1014 hPa
Density Alt2,090 ft
Elevation653 ft
Report Wrong Elevation
Raw Report
KAQW 191752Z AUTO 08005KT 10SM CLR 24/18 A2995 RMK AO2 SLP141
60019 T02440178 10244 20117 58018=

Extra information for KAQW:More info

Metar Taf Metar & Taf Last 4 Metars F.Rules Stats Wind Profile Meteogram Temp Stats Airport Information Weather charts Add Link Nearby VenuesMetar ALERT Operation Metar Decoded Social comments

AIRNAV info for KAQW